sensor_id;sensor_type;location;lat;lon;timestamp;temperature;humidity
1107;DHT22;540;49.448;8.612;2022-12-20T15:53:03;8.80;99.90
1107;DHT22;540;49.448;8.612;2022-12-20T15:55:31;9.00;99.90
1107;DHT22;540;49.448;8.612;2022-12-20T15:58:05;8.90;99.90
1107;DHT22;540;49.448;8.612;2022-12-20T16:00:38;9.40;99.90
1107;DHT22;540;49.448;8.612;2022-12-20T16:03:13;8.60;99.90
1107;DHT22;540;49.448;8.612;2022-12-20T16:05:42;9.20;99.90
1107;DHT22;540;49.448;8.612;2022-12-20T16:08:11;9.40;99.90
1107;DHT22;540;49.448;8.612;2022-12-20T16:10:39;9.40;99.90
1107;DHT22;540;49.448;8.612;2022-12-20T16:13:13;9.50;99.90
1107;DHT22;540;49.448;8.612;2022-12-20T16:15:47;9.20;99.90
1107;DHT22;540;49.448;8.612;2022-12-20T16:18:16;9.40;99.90
1107;DHT22;540;49.448;8.612;2022-12-20T16:20:43;9.30;99.90
1107;DHT22;540;49.448;8.612;2022-12-20T16:23:16;9.30;99.90
1107;DHT22;540;49.448;8.612;2022-12-20T16:25:45;9.30;99.90
1107;DHT22;540;49.448;8.612;2022-12-20T16:28:12;9.20;99.90
1107;DHT22;540;49.448;8.612;2022-12-20T16:30:40;9.20;99.90
1107;DHT22;540;49.448;8.612;2022-12-20T16:33:18;9.40;99.90
1107;DHT22;540;49.448;8.612;2022-12-20T16:35:48;9.70;99.90
1107;DHT22;540;49.448;8.612;2022-12-20T16:38:17;9.40;99.90
1107;DHT22;540;49.448;8.612;2022-12-20T16:40:45;9.20;99.90
1107;DHT22;540;49.448;8.612;2022-12-20T16:43:15;9.40;99.90
1107;DHT22;540;49.448;8.612;2022-12-20T16:45:44;9.40;99.90
1107;DHT22;540;49.448;8.612;2022-12-20T16:48:11;9.30;99.90
1107;DHT22;540;49.448;8.612;2022-12-20T16:50:39;9.20;99.90
1107;DHT22;540;49.448;8.612;2022-12-20T16:53:12;9.20;99.90
1107;DHT22;540;49.448;8.612;2022-12-20T16:55:42;9.10;99.90
1107;DHT22;540;49.448;8.612;2022-12-20T16:58:10;9.20;99.90
1107;DHT22;540;49.448;8.612;2022-12-20T17:00:38;9.30;99.90
1107;DHT22;540;49.448;8.612;2022-12-20T17:03:06;9.10;99.90
1107;DHT22;540;49.448;8.612;2022-12-20T17:05:35;9.40;99.90
1107;DHT22;540;49.448;8.612;2022-12-20T17:08:05;9.40;99.90
1107;DHT22;540;49.448;8.612;2022-12-20T17:10:52;9.20;99.90
1107;DHT22;540;49.448;8.612;2022-12-20T17:13:20;9.40;99.90
1107;DHT22;540;49.448;8.612;2022-12-20T17:15:47;9.40;99.90
1107;DHT22;540;49.448;8.612;2022-12-20T17:18:15;9.60;99.90
1107;DHT22;540;49.448;8.612;2022-12-20T17:20:43;9.20;99.90
1107;DHT22;540;49.448;8.612;2022-12-20T17:23:12;9.50;99.90
1107;DHT22;540;49.448;8.612;2022-12-20T17:26:00;9.50;99.90
1107;DHT22;540;49.448;8.612;2022-12-20T17:28:28;8.90;99.90
1107;DHT22;540;49.448;8.612;2022-12-20T17:30:56;9.50;99.90
1107;DHT22;540;49.448;8.612;2022-12-20T17:33:33;9.40;99.90
1107;DHT22;540;49.448;8.612;2022-12-20T17:36:01;9.50;99.90
1107;DHT22;540;49.448;8.612;2022-12-20T17:38:29;9.50;99.90
1107;DHT22;540;49.448;8.612;2022-12-20T17:41:01;9.80;99.90
1107;DHT22;540;49.448;8.612;2022-12-20T17:43:29;9.90;99.90
1107;DHT22;540;49.448;8.612;2022-12-20T17:45:57;9.60;99.90
1107;DHT22;540;49.448;8.612;2022-12-20T17:48:25;9.80;99.90
1107;DHT22;540;49.448;8.612;2022-12-20T17:51:00;9.60;99.90
1107;DHT22;540;49.448;8.612;2022-12-20T17:53:28;9.50;99.90
1107;DHT22;540;49.448;8.612;2022-12-20T17:55:56;9.50;99.90
1107;DHT22;540;49.448;8.612;2022-12-20T17:58:25;9.70;99.90
1107;DHT22;540;49.448;8.612;2022-12-20T18:00:53;9.70;99.90
1107;DHT22;540;49.448;8.612;2022-12-20T18:03:21;9.70;99.90
1107;DHT22;540;49.448;8.612;2022-12-20T18:06:09;9.10;99.90
1107;DHT22;540;49.448;8.612;2022-12-20T18:08:37;9.80;99.90
1107;DHT22;540;49.448;8.612;2022-12-20T18:11:05;9.50;99.90
1107;DHT22;540;49.448;8.612;2022-12-20T18:13:35;9.60;99.90
1107;DHT22;540;49.448;8.612;2022-12-20T18:16:04;9.90;99.90
1107;DHT22;540;49.448;8.612;2022-12-20T18:18:32;9.60;99.90
1107;DHT22;540;49.448;8.612;2022-12-20T18:21:03;9.60;99.90
1107;DHT22;540;49.448;8.612;2022-12-20T18:23:32;9.40;99.90
1107;DHT22;540;49.448;8.612;2022-12-20T18:26:05;9.40;99.90
1107;DHT22;540;49.448;8.612;2022-12-20T18:28:36;9.60;99.90
1107;DHT22;540;49.448;8.612;2022-12-20T18:31:05;9.50;99.90
1107;DHT22;540;49.448;8.612;2022-12-20T18:33:33;9.50;99.90
1107;DHT22;540;49.448;8.612;2022-12-20T18:36:03;9.50;99.90
1107;DHT22;540;49.448;8.612;2022-12-20T18:38:32;9.40;99.90
1107;DHT22;540;49.448;8.612;2022-12-20T18:41:01;9.80;99.90
1107;DHT22;540;49.448;8.612;2022-12-20T18:43:32;9.50;99.90
1107;DHT22;540;49.448;8.612;2022-12-20T18:46:03;9.60;99.90
1107;DHT22;540;49.448;8.612;2022-12-20T18:48:31;9.60;99.90
1107;DHT22;540;49.448;8.612;2022-12-20T18:51:03;9.70;99.90
1107;DHT22;540;49.448;8.612;2022-12-20T18:53:31;9.70;99.90
1107;DHT22;540;49.448;8.612;2022-12-20T18:56:06;9.90;99.90
1107;DHT22;540;49.448;8.612;2022-12-20T18:58:34;9.90;99.90
1107;DHT22;540;49.448;8.612;2022-12-20T19:01:06;9.80;99.90
1107;DHT22;540;49.448;8.612;2022-12-20T19:03:34;9.90;99.90
1107;DHT22;540;49.448;8.612;2022-12-20T19:06:02;10.10;99.90
1107;DHT22;540;49.448;8.612;2022-12-20T19:08:30;10.20;99.90
1107;DHT22;540;49.448;8.612;2022-12-20T19:11:03;10.10;99.90
1107;DHT22;540;49.448;8.612;2022-12-20T19:13:31;10.20;99.90
1107;DHT22;540;49.448;8.612;2022-12-20T19:16:00;10.30;99.90
1107;DHT22;540;49.448;8.612;2022-12-20T19:18:30;10.30;99.90
1107;DHT22;540;49.448;8.612;2022-12-20T19:21:03;10.40;99.90
1107;DHT22;540;49.448;8.612;2022-12-20T19:23:32;10.40;99.90
1107;DHT22;540;49.448;8.612;2022-12-20T19:26:01;10.40;99.90
1107;DHT22;540;49.448;8.612;2022-12-20T19:28:31;10.30;99.90
1107;DHT22;540;49.448;8.612;2022-12-20T19:31:05;10.40;99.90
1107;DHT22;540;49.448;8.612;2022-12-20T19:33:37;10.00;99.90
1107;DHT22;540;49.448;8.612;2022-12-20T19:36:08;10.20;99.90
1107;DHT22;540;49.448;8.612;2022-12-20T19:38:40;9.80;99.90
1107;DHT22;540;49.448;8.612;2022-12-20T19:41:09;10.20;99.90
1107;DHT22;540;49.448;8.612;2022-12-20T19:43:37;9.80;99.90
1107;DHT22;540;49.448;8.612;2022-12-20T19:46:05;9.80;99.90
1107;DHT22;540;49.448;8.612;2022-12-20T19:48:36;9.70;99.90
1107;DHT22;540;49.448;8.612;2022-12-20T19:51:06;9.90;99.90
1107;DHT22;540;49.448;8.612;2022-12-20T19:53:35;9.40;99.90
1107;DHT22;540;49.448;8.612;2022-12-20T19:56:04;9.30;99.90
1107;DHT22;540;49.448;8.612;2022-12-20T19:58:34;9.40;99.90
1107;DHT22;540;49.448;8.612;2022-12-20T20:01:03;9.50;99.90
1107;DHT22;540;49.448;8.612;2022-12-20T20:03:31;9.30;99.90
1107;DHT22;540;49.448;8.612;2022-12-20T20:06:01;9.30;99.90
1107;DHT22;540;49.448;8.612;2022-12-20T20:08:29;9.50;99.90
1107;DHT22;540;49.448;8.612;2022-12-20T20:10:58;9.60;99.90
1107;DHT22;540;49.448;8.612;2022-12-20T20:13:34;9.50;99.90
1107;DHT22;540;49.448;8.612;2022-12-20T20:16:03;9.60;99.90
1107;DHT22;540;49.448;8.612;2022-12-20T20:18:32;9.30;99.90
1107;DHT22;540;49.448;8.612;2022-12-20T20:21:05;9.50;99.90
1107;DHT22;540;49.448;8.612;2022-12-20T20:23:35;9.20;99.90
1107;DHT22;540;49.448;8.612;2022-12-20T20:26:06;8.70;99.90
1107;DHT22;540;49.448;8.612;2022-12-20T20:28:35;9.20;99.90
1107;DHT22;540;49.448;8.612;2022-12-20T20:31:12;9.10;99.90
1107;DHT22;540;49.448;8.612;2022-12-20T20:33:41;9.70;99.90
1107;DHT22;540;49.448;8.612;2022-12-20T20:36:12;9.40;99.90
1107;DHT22;540;49.448;8.612;2022-12-20T20:38:40;9.50;99.90
1107;DHT22;540;49.448;8.612;2022-12-20T20:41:08;9.20;99.90
1107;DHT22;540;49.448;8.612;2022-12-20T20:43:36;9.30;99.90
1107;DHT22;540;49.448;8.612;2022-12-20T20:46:06;9.20;99.90
1107;DHT22;540;49.448;8.612;2022-12-20T20:48:35;9.30;99.90
1107;DHT22;540;49.448;8.612;2022-12-20T20:51:04;9.30;99.90
1107;DHT22;540;49.448;8.612;2022-12-20T20:53:33;9.30;99.90
1107;DHT22;540;49.448;8.612;2022-12-20T20:56:02;9.40;99.90
1107;DHT22;540;49.448;8.612;2022-12-20T20:58:30;9.70;99.90
1107;DHT22;540;49.448;8.612;2022-12-20T21:01:00;9.80;99.90
1107;DHT22;540;49.448;8.612;2022-12-20T21:03:29;9.60;99.90
